sensor_id;sensor_type;location;lat;lon;timestamp;temperature;humidity
26182;DHT22;13927;51.534;11.866;2022-11-23T00:01:20;3.50;99.90
26182;DHT22;13927;51.534;11.866;2022-11-23T00:03:49;3.50;99.90
26182;DHT22;13927;51.534;11.866;2022-11-23T00:06:17;3.50;99.90
26182;DHT22;13927;51.534;11.866;2022-11-23T00:08:44;3.50;99.90
26182;DHT22;13927;51.534;11.866;2022-11-23T00:11:10;3.60;99.90
26182;DHT22;13927;51.534;11.866;2022-11-23T00:13:36;3.60;99.90
26182;DHT22;13927;51.534;11.866;2022-11-23T00:16:10;3.60;99.90
26182;DHT22;13927;51.534;11.866;2022-11-23T00:18:38;3.60;99.90
26182;DHT22;13927;51.534;11.866;2022-11-23T00:21:13;3.70;99.90
26182;DHT22;13927;51.534;11.866;2022-11-23T00:23:40;3.70;99.90
26182;DHT22;13927;51.534;11.866;2022-11-23T00:26:06;3.70;99.90
26182;DHT22;13927;51.534;11.866;2022-11-23T00:28:32;3.80;99.90
26182;DHT22;13927;51.534;11.866;2022-11-23T00:31:01;3.80;99.90
26182;DHT22;13927;51.534;11.866;2022-11-23T00:33:27;3.80;99.90
26182;DHT22;13927;51.534;11.866;2022-11-23T00:38:30;3.90;99.90
26182;DHT22;13927;51.534;11.866;2022-11-23T00:41:00;3.80;99.90
26182;DHT22;13927;51.534;11.866;2022-11-23T00:43:28;3.80;99.90
26182;DHT22;13927;51.534;11.866;2022-11-23T00:46:06;3.80;99.90
26182;DHT22;13927;51.534;11.866;2022-11-23T00:48:33;3.80;99.90
26182;DHT22;13927;51.534;11.866;2022-11-23T00:51:01;3.80;99.90
26182;DHT22;13927;51.534;11.866;2022-11-23T00:53:28;3.90;99.90
26182;DHT22;13927;51.534;11.866;2022-11-23T00:55:55;3.90;99.90
26182;DHT22;13927;51.534;11.866;2022-11-23T00:58:21;3.90;99.90
26182;DHT22;13927;51.534;11.866;2022-11-23T01:00:48;3.90;99.90
26182;DHT22;13927;51.534;11.866;2022-11-23T01:03:14;3.90;99.90
26182;DHT22;13927;51.534;11.866;2022-11-23T01:05:40;3.90;99.90
26182;DHT22;13927;51.534;11.866;2022-11-23T01:08:07;3.90;99.90
26182;DHT22;13927;51.534;11.866;2022-11-23T01:10:33;3.90;99.90
26182;DHT22;13927;51.534;11.866;2022-11-23T01:12:59;3.90;99.90
26182;DHT22;13927;51.534;11.866;2022-11-23T01:15:25;3.90;99.90
26182;DHT22;13927;51.534;11.866;2022-11-23T01:17:51;3.90;99.90
26182;DHT22;13927;51.534;11.866;2022-11-23T01:20:17;3.90;99.90
26182;DHT22;13927;51.534;11.866;2022-11-23T01:22:43;3.90;99.90
26182;DHT22;13927;51.534;11.866;2022-11-23T01:25:09;3.90;99.90
26182;DHT22;13927;51.534;11.866;2022-11-23T01:27:34;4.00;99.90
26182;DHT22;13927;51.534;11.866;2022-11-23T01:30:00;4.00;99.90
26182;DHT22;13927;51.534;11.866;2022-11-23T01:32:26;4.00;99.90
26182;DHT22;13927;51.534;11.866;2022-11-23T01:34:51;4.00;99.90
26182;DHT22;13927;51.534;11.866;2022-11-23T01:37:17;4.00;99.90
26182;DHT22;13927;51.534;11.866;2022-11-23T01:39:43;4.10;99.90
26182;DHT22;13927;51.534;11.866;2022-11-23T01:42:08;4.10;99.90
26182;DHT22;13927;51.534;11.866;2022-11-23T01:44:36;4.10;99.90
26182;DHT22;13927;51.534;11.866;2022-11-23T01:47:06;4.10;99.90
26182;DHT22;13927;51.534;11.866;2022-11-23T01:49:42;4.10;99.90
26182;DHT22;13927;51.534;11.866;2022-11-23T01:52:12;4.10;99.90
26182;DHT22;13927;51.534;11.866;2022-11-23T01:54:47;4.10;99.90
26182;DHT22;13927;51.534;11.866;2022-11-23T01:57:38;4.20;99.90
26182;DHT22;13927;51.534;11.866;2022-11-23T02:00:05;4.20;99.90
26182;DHT22;13927;51.534;11.866;2022-11-23T02:02:33;4.20;99.90
26182;DHT22;13927;51.534;11.866;2022-11-23T02:05:01;4.20;99.90
26182;DHT22;13927;51.534;11.866;2022-11-23T02:07:29;4.20;99.90
26182;DHT22;13927;51.534;11.866;2022-11-23T02:09:55;4.10;99.90
26182;DHT22;13927;51.534;11.866;2022-11-23T02:12:21;4.10;99.90
26182;DHT22;13927;51.534;11.866;2022-11-23T02:14:47;4.10;99.90
26182;DHT22;13927;51.534;11.866;2022-11-23T02:17:13;4.10;99.90
26182;DHT22;13927;51.534;11.866;2022-11-23T02:28:22;4.00;99.90
26182;DHT22;13927;51.534;11.866;2022-11-23T02:30:53;4.00;99.90
26182;DHT22;13927;51.534;11.866;2022-11-23T02:33:19;4.00;99.90
26182;DHT22;13927;51.534;11.866;2022-11-23T02:35:50;4.00;99.90
26182;DHT22;13927;51.534;11.866;2022-11-23T02:38:29;4.00;99.90
26182;DHT22;13927;51.534;11.866;2022-11-23T02:40:56;4.10;99.90
26182;DHT22;13927;51.534;11.866;2022-11-23T02:43:22;4.10;99.90
26182;DHT22;13927;51.534;11.866;2022-11-23T02:46:01;4.10;99.90
26182;DHT22;13927;51.534;11.866;2022-11-23T02:48:28;4.20;99.90
26182;DHT22;13927;51.534;11.866;2022-11-23T02:50:53;4.20;99.90
26182;DHT22;13927;51.534;11.866;2022-11-23T02:53:19;4.30;99.90
26182;DHT22;13927;51.534;11.866;2022-11-23T02:55:45;4.30;99.90
26182;DHT22;13927;51.534;11.866;2022-11-23T02:58:11;4.30;99.90
26182;DHT22;13927;51.534;11.866;2022-11-23T03:00:37;4.40;99.90
26182;DHT22;13927;51.534;11.866;2022-11-23T03:03:03;4.40;99.90
26182;DHT22;13927;51.534;11.866;2022-11-23T03:05:29;4.50;99.90
26182;DHT22;13927;51.534;11.866;2022-11-23T03:07:55;4.50;99.90
26182;DHT22;13927;51.534;11.866;2022-11-23T03:10:20;4.50;99.90
26182;DHT22;13927;51.534;11.866;2022-11-23T03:12:46;4.50;99.90
26182;DHT22;13927;51.534;11.866;2022-11-23T03:15:12;4.60;99.90
26182;DHT22;13927;51.534;11.866;2022-11-23T03:17:38;4.60;99.90
26182;DHT22;13927;51.534;11.866;2022-11-23T03:20:04;4.60;99.90
26182;DHT22;13927;51.534;11.866;2022-11-23T03:22:30;4.60;99.90
26182;DHT22;13927;51.534;11.866;2022-11-23T03:24:56;4.70;99.90
26182;DHT22;13927;51.534;11.866;2022-11-23T03:27:22;4.70;99.90
26182;DHT22;13927;51.534;11.866;2022-11-23T03:29:48;4.60;99.90
26182;DHT22;13927;51.534;11.866;2022-11-23T03:32:14;4.60;99.90
26182;DHT22;13927;51.534;11.866;2022-11-23T03:34:39;4.60;99.90
26182;DHT22;13927;51.534;11.866;2022-11-23T03:37:05;4.50;99.90
26182;DHT22;13927;51.534;11.866;2022-11-23T03:39:31;4.50;99.90
26182;DHT22;13927;51.534;11.866;2022-11-23T03:41:56;4.40;99.90
26182;DHT22;13927;51.534;11.866;2022-11-23T03:44:22;4.40;99.90
26182;DHT22;13927;51.534;11.866;2022-11-23T03:46:48;4.40;99.90
26182;DHT22;13927;51.534;11.866;2022-11-23T03:49:15;4.40;99.90
26182;DHT22;13927;51.534;11.866;2022-11-23T03:51:41;4.30;99.90
26182;DHT22;13927;51.534;11.866;2022-11-23T03:54:07;4.30;99.90
26182;DHT22;13927;51.534;11.866;2022-11-23T03:56:33;4.20;99.90
26182;DHT22;13927;51.534;11.866;2022-11-23T03:58:58;4.20;99.90
26182;DHT22;13927;51.534;11.866;2022-11-23T04:01:24;4.10;99.90
26182;DHT22;13927;51.534;11.866;2022-11-23T04:03:50;4.10;99.90
26182;DHT22;13927;51.534;11.866;2022-11-23T04:06:16;4.10;99.90
26182;DHT22;13927;51.534;11.866;2022-11-23T04:08:42;4.00;99.90
26182;DHT22;13927;51.534;11.866;2022-11-23T04:11:08;4.00;99.90
26182;DHT22;13927;51.534;11.866;2022-11-23T04:13:34;4.00;99.90
26182;DHT22;13927;51.534;11.866;2022-11-23T04:16:00;4.00;99.90
26182;DHT22;13927;51.534;11.866;2022-11-23T04:18:25;3.90;99.90
26182;DHT22;13927;51.534;11.866;2022-11-23T04:20:51;4.00;99.90
26182;DHT22;13927;51.534;11.866;2022-11-23T04:23:17;4.00;99.90
26182;DHT22;13927;51.534;11.866;2022-11-23T04:25:43;4.00;99.90
26182;DHT22;13927;51.534;11.866;2022-11-23T04:28:09;4.00;99.90
26182;DHT22;13927;51.534;11.866;2022-11-23T04:30:35;3.90;99.90
26182;DHT22;13927;51.534;11.866;2022-11-23T04:33:01;3.80;99.90
26182;DHT22;13927;51.534;11.866;2022-11-23T04:35:26;3.80;99.90
26182;DHT22;13927;51.534;11.866;2022-11-23T04:37:52;3.70;99.90
26182;DHT22;13927;51.534;11.866;2022-11-23T04:40:18;3.70;99.90
26182;DHT22;13927;51.534;11.866;2022-11-23T04:42:44;3.70;99.90
26182;DHT22;13927;51.534;11.866;2022-11-23T04:45:09;3.70;99.90
26182;DHT22;13927;51.534;11.866;2022-11-23T04:47:35;3.70;99.90
26182;DHT22;13927;51.534;11.866;2022-11-23T04:50:01;3.80;99.90
26182;DHT22;13927;51.534;11.866;2022-11-23T04:52:27;3.80;99.90
26182;DHT22;13927;51.534;11.866;2022-11-23T04:54:53;3.90;99.90
26182;DHT22;13927;51.534;11.866;2022-11-23T04:57:18;3.90;99.90
26182;DHT22;13927;51.534;11.866;2022-11-23T04:59:44;3.90;99.90
26182;DHT22;13927;51.534;11.866;2022-11-23T05:02:10;3.90;99.90
26182;DHT22;13927;51.534;11.866;2022-11-23T05:04:36;4.00;99.90
26182;DHT22;13927;51.534;11.866;2022-11-23T05:07:01;4.00;99.90
26182;DHT22;13927;51.534;11.866;2022-11-23T05:09:27;4.10;99.90
26182;DHT22;13927;51.534;11.866;2022-11-23T05:11:53;4.10;99.90
26182;DHT22;13927;51.534;11.866;2022-11-23T05:14:18;4.20;99.90
26182;DHT22;13927;51.534;11.866;2022-11-23T05:16:44;4.20;99.90
26182;DHT22;13927;51.534;11.866;2022-11-23T05:19:10;4.30;99.90
26182;DHT22;13927;51.534;11.866;2022-11-23T05:21:36;4.30;99.90
26182;DHT22;13927;51.534;11.866;2022-11-23T05:24:01;4.30;99.90
26182;DHT22;13927;51.534;11.866;2022-11-23T05:26:27;4.30;99.90
26182;DHT22;13927;51.534;11.866;2022-11-23T05:28:53;4.20;99.90
26182;DHT22;13927;51.534;11.866;2022-11-23T05:31:18;4.20;99.90
26182;DHT22;13927;51.534;11.866;2022-11-23T05:33:44;4.10;99.90
26182;DHT22;13927;51.534;11.866;2022-11-23T05:36:10;4.10;99.90
26182;DHT22;13927;51.534;11.866;2022-11-23T05:38:39;4.10;99.90
26182;DHT22;13927;51.534;11.866;2022-11-23T05:41:05;4.10;99.90
26182;DHT22;13927;51.534;11.866;2022-11-23T05:43:31;4.10;99.90
26182;DHT22;13927;51.534;11.866;2022-11-23T05:45:58;4.10;99.90
26182;DHT22;13927;51.534;11.866;2022-11-23T05:48:25;4.10;99.90
26182;DHT22;13927;51.534;11.866;2022-11-23T05:50:50;4.10;99.90
26182;DHT22;13927;51.534;11.866;2022-11-23T05:53:16;4.00;99.90
26182;DHT22;13927;51.534;11.866;2022-11-23T05:55:42;4.00;99.90
26182;DHT22;13927;51.534;11.866;2022-11-23T05:58:08;4.00;99.90
26182;DHT22;13927;51.534;11.866;2022-11-23T06:00:34;4.00;99.90
26182;DHT22;13927;51.534;11.866;2022-11-23T06:03:00;4.00;99.90
26182;DHT22;13927;51.534;11.866;2022-11-23T06:05:27;4.10;99.90
26182;DHT22;13927;51.534;11.866;2022-11-23T06:07:53;4.10;99.90
26182;DHT22;13927;51.534;11.866;2022-11-23T06:10:19;4.10;99.90
26182;DHT22;13927;51.534;11.866;2022-11-23T06:12:45;4.10;99.90
26182;DHT22;13927;51.534;11.866;2022-11-23T06:15:11;4.20;99.90
26182;DHT22;13927;51.534;11.866;2022-11-23T06:17:37;4.20;99.90
26182;DHT22;13927;51.534;11.866;2022-11-23T06:20:07;4.30;99.90
26182;DHT22;13927;51.534;11.866;2022-11-23T06:22:33;4.30;99.90
26182;DHT22;13927;51.534;11.866;2022-11-23T06:25:00;4.30;99.90
26182;DHT22;13927;51.534;11.866;2022-11-23T06:27:26;4.30;99.90
26182;DHT22;13927;51.534;11.866;2022-11-23T06:29:51;4.40;99.90
26182;DHT22;13927;51.534;11.866;2022-11-23T06:32:17;4.40;99.90
26182;DHT22;13927;51.534;11.866;2022-11-23T06:34:43;4.30;99.90
26182;DHT22;13927;51.534;11.866;2022-11-23T06:37:09;4.30;99.90
26182;DHT22;13927;51.534;11.866;2022-11-23T06:39:35;4.30;99.90
26182;DHT22;13927;51.534;11.866;2022-11-23T06:42:01;4.20;99.90
26182;DHT22;13927;51.534;11.866;2022-11-23T06:44:26;4.20;99.90
26182;DHT22;13927;51.534;11.866;2022-11-23T06:46:52;4.20;99.90
26182;DHT22;13927;51.534;11.866;2022-11-23T06:49:18;4.20;99.90
26182;DHT22;13927;51.534;11.866;2022-11-23T06:51:46;4.20;99.90
26182;DHT22;13927;51.534;11.866;2022-11-23T06:54:12;4.30;99.90
26182;DHT22;13927;51.534;11.866;2022-11-23T06:56:37;4.30;99.90
26182;DHT22;13927;51.534;11.866;2022-11-23T06:59:03;4.30;99.90
26182;DHT22;13927;51.534;11.866;2022-11-23T07:01:29;4.30;99.90
26182;DHT22;13927;51.534;11.866;2022-11-23T07:03:55;4.40;99.90
26182;DHT22;13927;51.534;11.866;2022-11-23T07:06:21;4.40;99.90
26182;DHT22;13927;51.534;11.866;2022-11-23T07:08:46;4.40;99.90
26182;DHT22;13927;51.534;11.866;2022-11-23T07:11:12;4.40;99.90
26182;DHT22;13927;51.534;11.866;2022-11-23T07:13:38;4.40;99.90
26182;DHT22;13927;51.534;11.866;2022-11-23T07:16:05;4.50;99.90
26182;DHT22;13927;51.534;11.866;2022-11-23T07:18:31;4.60;99.90
26182;DHT22;13927;51.534;11.866;2022-11-23T07:20:57;4.70;99.90
26182;DHT22;13927;51.534;11.866;2022-11-23T07:23:24;4.60;99.90
26182;DHT22;13927;51.534;11.866;2022-11-23T07:25:51;4.70;99.90
26182;DHT22;13927;51.534;11.866;2022-11-23T07:28:17;4.70;99.90
26182;DHT22;13927;51.534;11.866;2022-11-23T07:30:43;4.70;99.90
26182;DHT22;13927;51.534;11.866;2022-11-23T07:33:10;4.80;99.90
26182;DHT22;13927;51.534;11.866;2022-11-23T07:35:38;4.80;99.90
26182;DHT22;13927;51.534;11.866;2022-11-23T07:38:05;4.90;99.90
26182;DHT22;13927;51.534;11.866;2022-11-23T07:40:35;4.90;99.90
26182;DHT22;13927;51.534;11.866;2022-11-23T07:43:03;5.00;99.90
26182;DHT22;13927;51.534;11.866;2022-11-23T07:45:30;5.00;99.90
26182;DHT22;13927;51.534;11.866;2022-11-23T07:48:05;5.00;99.90
26182;DHT22;13927;51.534;11.866;2022-11-23T07:50:33;5.10;99.90
26182;DHT22;13927;51.534;11.866;2022-11-23T07:53:04;5.10;99.90
26182;DHT22;13927;51.534;11.866;2022-11-23T07:55:30;5.20;99.90
26182;DHT22;13927;51.534;11.866;2022-11-23T07:57:56;5.20;99.90
26182;DHT22;13927;51.534;11.866;2022-11-23T08:00:23;5.30;99.90
26182;DHT22;13927;51.534;11.866;2022-11-23T08:02:50;5.30;99.90
26182;DHT22;13927;51.534;11.866;2022-11-23T08:05:16;5.40;99.90
26182;DHT22;13927;51.534;11.866;2022-11-23T08:07:43;5.40;99.90
26182;DHT22;13927;51.534;11.866;2022-11-23T08:10:10;5.50;99.90
26182;DHT22;13927;51.534;11.866;2022-11-23T08:12:37;5.50;99.90
26182;DHT22;13927;51.534;11.866;2022-11-23T08:15:04;5.60;99.90
26182;DHT22;13927;51.534;11.866;2022-11-23T08:17:31;5.70;99.90
26182;DHT22;13927;51.534;11.866;2022-11-23T08:19:57;5.80;99.90
26182;DHT22;13927;51.534;11.866;2022-11-23T08:22:22;5.80;99.90
26182;DHT22;13927;51.534;11.866;2022-11-23T08:24:48;5.80;99.90
26182;DHT22;13927;51.534;11.866;2022-11-23T08:27:14;5.90;99.90
26182;DHT22;13927;51.534;11.866;2022-11-23T08:29:40;6.00;99.90
26182;DHT22;13927;51.534;11.866;2022-11-23T08:32:06;6.10;99.90
26182;DHT22;13927;51.534;11.866;2022-11-23T08:34:32;6.10;99.90
26182;DHT22;13927;51.534;11.866;2022-11-23T08:36:57;6.20;99.90
26182;DHT22;13927;51.534;11.866;2022-11-23T08:39:23;6.30;99.90
26182;DHT22;13927;51.534;11.866;2022-11-23T08:41:50;6.40;99.90
26182;DHT22;13927;51.534;11.866;2022-11-23T08:44:16;6.60;99.90
26182;DHT22;13927;51.534;11.866;2022-11-23T08:46:41;6.60;99.90
26182;DHT22;13927;51.534;11.866;2022-11-23T08:49:07;6.80;99.90
26182;DHT22;13927;51.534;11.866;2022-11-23T08:51:33;6.80;99.90
26182;DHT22;13927;51.534;11.866;2022-11-23T08:53:59;6.90;99.90
26182;DHT22;13927;51.534;11.866;2022-11-23T08:56:25;7.00;99.90
26182;DHT22;13927;51.534;11.866;2022-11-23T08:58:50;7.00;99.90
26182;DHT22;13927;51.534;11.866;2022-11-23T09:01:16;7.10;99.90
26182;DHT22;13927;51.534;11.866;2022-11-23T09:03:43;7.10;99.90
26182;DHT22;13927;51.534;11.866;2022-11-23T09:06:10;7.20;99.90
26182;DHT22;13927;51.534;11.866;2022-11-23T09:08:36;7.20;99.90
26182;DHT22;13927;51.534;11.866;2022-11-23T09:11:04;7.30;99.90
26182;DHT22;13927;51.534;11.866;2022-11-23T09:13:33;7.40;99.90
26182;DHT22;13927;51.534;11.866;2022-11-23T09:16:00;7.40;99.90
26182;DHT22;13927;51.534;11.866;2022-11-23T09:18:27;7.40;99.90
26182;DHT22;13927;51.534;11.866;2022-11-23T09:20:55;7.40;99.90
26182;DHT22;13927;51.534;11.866;2022-11-23T09:23:22;7.40;99.90
26182;DHT22;13927;51.534;11.866;2022-11-23T09:25:47;7.40;99.90
26182;DHT22;13927;51.534;11.866;2022-11-23T09:28:15;7.50;99.90
26182;DHT22;13927;51.534;11.866;2022-11-23T09:30:44;7.50;99.90
26182;DHT22;13927;51.534;11.866;2022-11-23T09:33:12;7.60;99.90
26182;DHT22;13927;51.534;11.866;2022-11-23T09:35:38;7.60;99.90
26182;DHT22;13927;51.534;11.866;2022-11-23T09:38:04;7.60;99.90
26182;DHT22;13927;51.534;11.866;2022-11-23T09:40:38;7.70;99.90
26182;DHT22;13927;51.534;11.866;2022-11-23T09:45:54;7.80;99.90
26182;DHT22;13927;51.534;11.866;2022-11-23T09:51:20;8.00;99.90
26182;DHT22;13927;51.534;11.866;2022-11-23T09:56:22;8.20;99.90
26182;DHT22;13927;51.534;11.866;2022-11-23T09:58:54;8.20;99.90
26182;DHT22;13927;51.534;11.866;2022-11-23T10:01:22;8.30;99.90
26182;DHT22;13927;51.534;11.866;2022-11-23T10:03:48;8.20;99.90
26182;DHT22;13927;51.534;11.866;2022-11-23T10:06:28;8.30;99.90
26182;DHT22;13927;51.534;11.866;2022-11-23T10:18:08;8.30;99.90
26182;DHT22;13927;51.534;11.866;2022-11-23T10:26:16;8.30;99.90
26182;DHT22;13927;51.534;11.866;2022-11-23T10:28:45;8.40;99.90
26182;DHT22;13927;51.534;11.866;2022-11-23T10:31:21;8.60;99.90
26182;DHT22;13927;51.534;11.866;2022-11-23T10:34:12;8.90;99.90
26182;DHT22;13927;51.534;11.866;2022-11-23T10:36:39;9.10;99.90
26182;DHT22;13927;51.534;11.866;2022-11-23T10:39:20;9.40;99.90
26182;DHT22;13927;51.534;11.866;2022-11-23T10:41:50;9.40;99.90
26182;DHT22;13927;51.534;11.866;2022-11-23T10:46:51;9.30;99.90
26182;DHT22;13927;51.534;11.866;2022-11-23T10:49:18;9.30;99.90
26182;DHT22;13927;51.534;11.866;2022-11-23T10:54:29;9.30;99.90
26182;DHT22;13927;51.534;11.866;2022-11-23T10:56:58;9.20;99.90
26182;DHT22;13927;51.534;11.866;2022-11-23T10:59:36;9.30;99.90
26182;DHT22;13927;51.534;11.866;2022-11-23T11:02:20;9.40;99.90
26182;DHT22;13927;51.534;11.866;2022-11-23T11:04:49;9.40;99.90
26182;DHT22;13927;51.534;11.866;2022-11-23T11:07:22;9.50;99.90
26182;DHT22;13927;51.534;11.866;2022-11-23T11:09:56;9.70;99.90
26182;DHT22;13927;51.534;11.866;2022-11-23T11:12:31;9.80;99.90
26182;DHT22;13927;51.534;11.866;2022-11-23T11:14:59;9.90;99.90
26182;DHT22;13927;51.534;11.866;2022-11-23T11:17:31;9.90;99.90
26182;DHT22;13927;51.534;11.866;2022-11-23T11:19:59;9.80;99.90
26182;DHT22;13927;51.534;11.866;2022-11-23T11:22:28;9.70;99.90
26182;DHT22;13927;51.534;11.866;2022-11-23T11:24:59;9.70;99.90
26182;DHT22;13927;51.534;11.866;2022-11-23T11:27:28;9.70;99.90
26182;DHT22;13927;51.534;11.866;2022-11-23T11:30:06;9.80;99.90
26182;DHT22;13927;51.534;11.866;2022-11-23T11:33:08;9.80;99.90
26182;DHT22;13927;51.534;11.866;2022-11-23T11:35:42;9.90;99.90
26182;DHT22;13927;51.534;11.866;2022-11-23T11:38:31;9.90;99.90
26182;DHT22;13927;51.534;11.866;2022-11-23T11:41:04;10.10;99.90
26182;DHT22;13927;51.534;11.866;2022-11-23T11:43:37;10.00;99.90
26182;DHT22;13927;51.534;11.866;2022-11-23T11:51:18;9.60;99.90
26182;DHT22;13927;51.534;11.866;2022-11-23T11:54:09;9.60;99.90
26182;DHT22;13927;51.534;11.866;2022-11-23T11:56:45;9.60;99.90
26182;DHT22;13927;51.534;11.866;2022-11-23T11:59:41;9.50;99.90
26182;DHT22;13927;51.534;11.866;2022-11-23T12:02:28;9.50;99.90
26182;DHT22;13927;51.534;11.866;2022-11-23T12:11:05;9.40;99.90
26182;DHT22;13927;51.534;11.866;2022-11-23T12:13:36;9.50;99.90
26182;DHT22;13927;51.534;11.866;2022-11-23T12:30:48;10.10;99.90
26182;DHT22;13927;51.534;11.866;2022-11-23T12:42:48;10.30;99.90
26182;DHT22;13927;51.534;11.866;2022-11-23T12:56:58;10.70;99.90
26182;DHT22;13927;51.534;11.866;2022-11-23T12:59:53;10.70;99.90
26182;DHT22;13927;51.534;11.866;2022-11-23T13:09:00;10.90;99.90
26182;DHT22;13927;51.534;11.866;2022-11-23T13:21:17;11.60;99.90
26182;DHT22;13927;51.534;11.866;2022-11-23T13:23:47;11.70;99.90
26182;DHT22;13927;51.534;11.866;2022-11-23T13:28:47;11.90;99.90
26182;DHT22;13927;51.534;11.866;2022-11-23T13:33:43;12.00;99.90
26182;DHT22;13927;51.534;11.866;2022-11-23T13:38:58;12.20;99.90
26182;DHT22;13927;51.534;11.866;2022-11-23T13:47:27;12.60;99.90
26182;DHT22;13927;51.534;11.866;2022-11-23T13:50:07;13.00;99.90
26182;DHT22;13927;51.534;11.866;2022-11-23T13:52:48;13.40;99.90
26182;DHT22;13927;51.534;11.866;2022-11-23T13:57:45;14.10;99.90
26182;DHT22;13927;51.534;11.866;2022-11-23T14:11:48;14.30;99.90
26182;DHT22;13927;51.534;11.866;2022-11-23T14:14:45;14.50;99.90
26182;DHT22;13927;51.534;11.866;2022-11-23T14:20:49;15.10;99.90
26182;DHT22;13927;51.534;11.866;2022-11-23T14:26:38;15.40;99.90
26182;DHT22;13927;51.534;11.866;2022-11-23T14:32:38;15.40;99.90
26182;DHT22;13927;51.534;11.866;2022-11-23T14:43:13;15.20;99.90
26182;DHT22;13927;51.534;11.866;2022-11-23T14:45:43;15.10;99.90
26182;DHT22;13927;51.534;11.866;2022-11-23T14:51:01;14.80;99.90
26182;DHT22;13927;51.534;11.866;2022-11-23T14:53:33;14.60;99.90
26182;DHT22;13927;51.534;11.866;2022-11-23T14:56:01;14.40;99.90
26182;DHT22;13927;51.534;11.866;2022-11-23T14:58:29;14.20;99.90
26182;DHT22;13927;51.534;11.866;2022-11-23T15:01:00;13.90;99.90
26182;DHT22;13927;51.534;11.866;2022-11-23T15:03:29;13.50;99.90
26182;DHT22;13927;51.534;11.866;2022-11-23T15:06:20;13.10;99.90
26182;DHT22;13927;51.534;11.866;2022-11-23T15:11:42;12.00;99.90
26182;DHT22;13927;51.534;11.866;2022-11-23T15:14:25;11.50;99.90
26182;DHT22;13927;51.534;11.866;2022-11-23T15:16:51;11.10;99.90
26182;DHT22;13927;51.534;11.866;2022-11-23T15:19:18;10.60;99.90
26182;DHT22;13927;51.534;11.866;2022-11-23T15:21:57;10.30;99.90
26182;DHT22;13927;51.534;11.866;2022-11-23T15:24:25;9.90;99.90
26182;DHT22;13927;51.534;11.866;2022-11-23T15:26:52;9.60;99.90
26182;DHT22;13927;51.534;11.866;2022-11-23T15:32:01;9.00;99.90
26182;DHT22;13927;51.534;11.866;2022-11-23T15:34:29;8.80;99.90
26182;DHT22;13927;51.534;11.866;2022-11-23T15:36:55;8.60;99.90
26182;DHT22;13927;51.534;11.866;2022-11-23T15:39:22;8.40;99.90
26182;DHT22;13927;51.534;11.866;2022-11-23T15:41:50;8.20;99.90
26182;DHT22;13927;51.534;11.866;2022-11-23T15:44:29;8.00;99.90
26182;DHT22;13927;51.534;11.866;2022-11-23T15:47:02;7.80;99.90
26182;DHT22;13927;51.534;11.866;2022-11-23T15:49:38;7.60;99.90
26182;DHT22;13927;51.534;11.866;2022-11-23T15:52:05;7.40;99.90
26182;DHT22;13927;51.534;11.866;2022-11-23T15:54:34;7.30;99.90
26182;DHT22;13927;51.534;11.866;2022-11-23T15:57:01;7.10;99.90
26182;DHT22;13927;51.534;11.866;2022-11-23T16:02:16;6.80;99.90
26182;DHT22;13927;51.534;11.866;2022-11-23T16:04:46;6.70;99.90
26182;DHT22;13927;51.534;11.866;2022-11-23T16:07:19;6.50;99.90
26182;DHT22;13927;51.534;11.866;2022-11-23T16:12:55;6.30;99.90
26182;DHT22;13927;51.534;11.866;2022-11-23T16:20:43;6.00;99.90
26182;DHT22;13927;51.534;11.866;2022-11-23T16:23:15;5.90;99.90
26182;DHT22;13927;51.534;11.866;2022-11-23T16:25:43;5.80;99.90
26182;DHT22;13927;51.534;11.866;2022-11-23T16:28:22;5.60;99.90
26182;DHT22;13927;51.534;11.866;2022-11-23T16:30:53;5.60;99.90
26182;DHT22;13927;51.534;11.866;2022-11-23T16:33:19;5.40;99.90
26182;DHT22;13927;51.534;11.866;2022-11-23T16:35:45;5.30;99.90
26182;DHT22;13927;51.534;11.866;2022-11-23T16:38:12;5.10;99.90
26182;DHT22;13927;51.534;11.866;2022-11-23T16:40:38;5.00;99.90
26182;DHT22;13927;51.534;11.866;2022-11-23T16:43:04;4.90;99.90
26182;DHT22;13927;51.534;11.866;2022-11-23T16:45:31;4.90;99.90
26182;DHT22;13927;51.534;11.866;2022-11-23T16:48:01;4.80;99.90
26182;DHT22;13927;51.534;11.866;2022-11-23T16:50:30;4.70;99.90
26182;DHT22;13927;51.534;11.866;2022-11-23T16:53:01;4.60;99.90
26182;DHT22;13927;51.534;11.866;2022-11-23T16:55:36;4.60;99.90
26182;DHT22;13927;51.534;11.866;2022-11-23T16:58:01;4.40;99.90
26182;DHT22;13927;51.534;11.866;2022-11-23T17:00:27;4.40;99.90
26182;DHT22;13927;51.534;11.866;2022-11-23T17:02:53;4.30;99.90
26182;DHT22;13927;51.534;11.866;2022-11-23T17:05:20;4.20;99.90
26182;DHT22;13927;51.534;11.866;2022-11-23T17:07:48;4.20;99.90
26182;DHT22;13927;51.534;11.866;2022-11-23T17:10:15;4.10;99.90
26182;DHT22;13927;51.534;11.866;2022-11-23T17:12:52;4.00;99.90
26182;DHT22;13927;51.534;11.866;2022-11-23T17:15:20;4.00;99.90
26182;DHT22;13927;51.534;11.866;2022-11-23T17:17:48;3.80;99.90
26182;DHT22;13927;51.534;11.866;2022-11-23T17:20:14;3.80;99.90
26182;DHT22;13927;51.534;11.866;2022-11-23T17:22:41;3.70;99.90
26182;DHT22;13927;51.534;11.866;2022-11-23T17:25:09;3.60;99.90
26182;DHT22;13927;51.534;11.866;2022-11-23T17:27:39;3.60;99.90
26182;DHT22;13927;51.534;11.866;2022-11-23T17:30:10;3.50;99.90
26182;DHT22;13927;51.534;11.866;2022-11-23T17:32:38;3.50;99.90
26182;DHT22;13927;51.534;11.866;2022-11-23T17:35:04;3.40;99.90
26182;DHT22;13927;51.534;11.866;2022-11-23T17:37:30;3.30;99.90
26182;DHT22;13927;51.534;11.866;2022-11-23T17:39:56;3.30;99.90
26182;DHT22;13927;51.534;11.866;2022-11-23T17:42:22;3.20;99.90
26182;DHT22;13927;51.534;11.866;2022-11-23T17:44:48;3.20;99.90
26182;DHT22;13927;51.534;11.866;2022-11-23T17:49:49;3.30;99.90
26182;DHT22;13927;51.534;11.866;2022-11-23T17:52:15;3.30;99.90
26182;DHT22;13927;51.534;11.866;2022-11-23T17:54:41;3.40;99.90
26182;DHT22;13927;51.534;11.866;2022-11-23T17:57:16;3.50;99.90
26182;DHT22;13927;51.534;11.866;2022-11-23T17:59:44;3.50;99.90
26182;DHT22;13927;51.534;11.866;2022-11-23T18:02:10;3.50;99.90
26182;DHT22;13927;51.534;11.866;2022-11-23T18:04:36;3.60;99.90
26182;DHT22;13927;51.534;11.866;2022-11-23T18:07:03;3.50;99.90
26182;DHT22;13927;51.534;11.866;2022-11-23T18:09:29;3.50;99.90
26182;DHT22;13927;51.534;11.866;2022-11-23T18:11:55;3.50;99.90
26182;DHT22;13927;51.534;11.866;2022-11-23T18:14:21;3.40;99.90
26182;DHT22;13927;51.534;11.866;2022-11-23T18:16:49;3.30;99.90
26182;DHT22;13927;51.534;11.866;2022-11-23T18:19:14;3.20;99.90
26182;DHT22;13927;51.534;11.866;2022-11-23T18:21:41;3.20;99.90
26182;DHT22;13927;51.534;11.866;2022-11-23T18:24:07;3.20;99.90
26182;DHT22;13927;51.534;11.866;2022-11-23T18:26:35;3.20;99.90
26182;DHT22;13927;51.534;11.866;2022-11-23T18:29:02;3.30;99.90